createdAt,value
2022-08-21T00:00:51.131Z,5.72
2022-08-21T00:05:54.387Z,5.70
2022-08-21T00:10:58.734Z,6.45
2022-08-21T00:16:02.039Z,7.28
2022-08-21T00:21:05.215Z,6.82
2022-08-21T00:26:10.092Z,8.20
2022-08-21T00:31:12.992Z,7.57
2022-08-21T00:36:16.276Z,7.50
2022-08-21T00:41:37.491Z,7.72
2022-08-21T00:46:42.577Z,7.63
2022-08-21T00:51:50.404Z,7.82
2022-08-21T00:56:59.511Z,7.55
2022-08-21T01:02:02.651Z,8.07
2022-08-21T01:07:05.602Z,7.63
2022-08-21T01:12:10.936Z,7.68
2022-08-21T01:17:16.733Z,7.30
2022-08-21T01:22:21.135Z,7.82
2022-08-21T01:27:24.104Z,7.82
2022-08-21T01:32:27.784Z,7.07
2022-08-21T01:37:32.033Z,7.40
2022-08-21T01:42:35.448Z,8.05
2022-08-21T01:47:38.785Z,8.20
2022-08-21T01:52:43.775Z,7.35
2022-08-21T01:57:47.400Z,7.25
2022-08-21T02:02:51.005Z,6.55
2022-08-21T02:07:56.644Z,7.40
2022-08-21T02:13:00.847Z,7.65
2022-08-21T02:18:04.938Z,7.40
2022-08-21T02:23:11.040Z,7.43
2022-08-21T02:28:15.716Z,7.85
2022-08-21T02:33:19.301Z,7.57
2022-08-21T02:38:27.122Z,7.68
2022-08-21T02:43:30.432Z,7.78
2022-08-21T02:48:34.850Z,8.82
2022-08-21T02:53:39.460Z,8.35
2022-08-21T02:58:53.027Z,7.95
2022-08-21T03:03:57.089Z,8.52
2022-08-21T03:09:01.732Z,9.18
2022-08-21T03:14:06.148Z,8.32
2022-08-21T03:19:09.023Z,7.80
2022-08-21T03:24:13.174Z,8.23
2022-08-21T03:29:16.473Z,8.27
2022-08-21T03:34:19.317Z,9.10
2022-08-21T03:39:23.544Z,8.82
2022-08-21T03:44:29.032Z,8.43
2022-08-21T03:49:31.986Z,8.68
2022-08-21T03:54:36.225Z,9.00
2022-08-21T03:59:40.016Z,9.50
2022-08-21T04:04:42.849Z,9.02
2022-08-21T04:09:47.553Z,9.52
2022-08-21T04:14:50.996Z,9.40
2022-08-21T04:19:54.116Z,9.18
2022-08-21T04:24:58.460Z,8.73
2022-08-21T04:30:01.899Z,9.30
2022-08-21T04:35:09.340Z,10.13
2022-08-21T04:40:15.395Z,9.98
2022-08-21T04:45:22.097Z,11.10
2022-08-21T04:50:28.613Z,10.98
2022-08-21T04:55:43.777Z,10.70
2022-08-21T05:00:47.614Z,10.55
2022-08-21T05:05:50.879Z,11.82
2022-08-21T05:11:00.154Z,13.05
2022-08-21T05:16:03.572Z,12.50
2022-08-21T05:21:06.760Z,12.82
2022-08-21T05:26:18.057Z,12.65
2022-08-21T05:31:21.241Z,12.40
2022-08-21T05:36:24.854Z,11.90
2022-08-21T05:41:29.494Z,12.27
2022-08-21T05:46:32.352Z,9.95
2022-08-21T05:51:35.214Z,12.32
2022-08-21T05:56:39.408Z,11.82
2022-08-21T06:01:42.832Z,11.80
2022-08-21T06:06:45.660Z,11.95
2022-08-21T06:11:49.945Z,11.05
2022-08-21T06:16:52.936Z,11.45
2022-08-21T06:21:55.748Z,14.30
2022-08-21T06:26:59.936Z,11.27
2022-08-21T06:32:04.272Z,11.52
2022-08-21T06:37:07.647Z,11.20
2022-08-21T06:42:17.177Z,10.63
2022-08-21T06:47:20.717Z,10.43
2022-08-21T06:52:23.684Z,10.02
2022-08-21T06:57:28.149Z,8.93
2022-08-21T07:02:30.976Z,8.90
2022-08-21T07:07:33.770Z,8.90
2022-08-21T07:12:38.077Z,8.20
2022-08-21T07:17:40.936Z,7.85
2022-08-21T07:22:44.349Z,7.38
2022-08-21T07:27:48.506Z,4.93
2022-08-21T07:32:51.516Z,7.60
2022-08-21T07:37:54.329Z,5.72
2022-08-21T07:42:58.634Z,7.50
2022-08-21T07:48:01.680Z,4.80
2022-08-21T07:53:05.106Z,4.28
2022-08-21T07:58:09.560Z,4.03
2022-08-21T08:03:12.654Z,4.25
2022-08-21T08:08:15.726Z,3.55
2022-08-21T08:13:20.055Z,3.55
2022-08-21T08:18:22.886Z,3.20
2022-08-21T08:23:26.305Z,2.92
2022-08-21T08:28:32.603Z,2.50
2022-08-21T08:33:35.489Z,2.70
2022-08-21T08:38:38.417Z,2.55
2022-08-21T08:43:52.495Z,2.35
2022-08-21T08:54:03.743Z,2.10
2022-08-21T08:59:15.757Z,1.98
2022-08-21T09:04:24.804Z,1.90
2022-08-21T09:09:40.180Z,2.45
2022-08-21T09:15:01.031Z,1.80
2022-08-21T09:20:15.606Z,1.95
2022-08-21T09:25:27.933Z,2.28
2022-08-21T09:30:34.416Z,2.38
2022-08-21T09:35:38.249Z,1.98
2022-08-21T09:40:44.136Z,1.77
2022-08-21T09:45:50.515Z,2.60
2022-08-21T09:50:54.714Z,2.85
2022-08-21T09:56:17.904Z,2.72
2022-08-21T10:01:27.319Z,3.20
2022-08-21T10:06:31.034Z,2.53
2022-08-21T10:11:35.200Z,3.03
2022-08-21T10:16:49.203Z,2.72
2022-08-21T10:22:02.450Z,4.13
2022-08-21T10:27:17.758Z,3.67
2022-08-21T10:32:43.309Z,4.25
2022-08-21T10:38:01.184Z,4.13
2022-08-21T10:43:18.726Z,3.78
2022-08-21T10:48:29.955Z,3.97
2022-08-21T10:53:57.000Z,3.63
2022-08-21T10:59:10.096Z,3.55
2022-08-21T11:04:21.605Z,3.38
2022-08-21T11:09:27.905Z,3.27
2022-08-21T11:14:38.476Z,2.20
2022-08-21T11:19:50.114Z,3.50
2022-08-21T11:24:59.355Z,2.50
2022-08-21T11:30:02.964Z,2.05
2022-08-21T11:35:15.480Z,2.20
2022-08-21T11:40:33.325Z,1.80
2022-08-21T11:45:46.744Z,2.63
2022-08-21T11:50:53.037Z,2.00
2022-08-21T11:56:02.317Z,1.90
2022-08-21T12:01:09.166Z,2.30
2022-08-21T12:06:24.081Z,2.70
2022-08-21T12:11:30.909Z,2.33
2022-08-21T12:16:36.154Z,2.50
2022-08-21T12:21:52.996Z,2.67
2022-08-21T12:26:59.165Z,3.10
2022-08-21T12:32:04.278Z,2.35
2022-08-21T12:37:17.377Z,2.97
2022-08-21T12:42:23.604Z,2.30
2022-08-21T12:47:36.813Z,3.05
2022-08-21T12:52:48.065Z,2.28
2022-08-21T12:57:50.937Z,3.07
2022-08-21T13:02:56.368Z,2.25
2022-08-21T13:08:04.978Z,2.45
2022-08-21T13:13:12.927Z,2.00
2022-08-21T13:18:24.599Z,2.00
2022-08-21T13:23:30.659Z,1.80
2022-08-21T13:28:38.613Z,1.98
2022-08-21T13:33:43.384Z,2.38
2022-08-21T13:38:48.039Z,1.80
2022-08-21T13:43:52.981Z,1.60
2022-08-21T13:48:57.217Z,1.52
2022-08-21T13:54:02.784Z,1.60
2022-08-21T13:59:05.672Z,2.03
2022-08-21T14:04:18.619Z,2.13
2022-08-21T14:09:30.458Z,1.70
2022-08-21T14:19:42.666Z,1.95
2022-08-21T14:24:47.120Z,2.55
2022-08-21T14:30:01.667Z,1.90
2022-08-21T14:35:04.967Z,2.00
2022-08-21T14:40:11.611Z,1.65
2022-08-21T14:45:21.187Z,1.85
2022-08-21T14:50:28.170Z,1.70
2022-08-21T14:55:56.070Z,1.30
2022-08-21T15:01:00.203Z,0.90
2022-08-21T15:06:04.083Z,1.05
2022-08-21T15:11:12.423Z,1.15
2022-08-21T15:16:16.494Z,1.00
2022-08-21T15:21:19.532Z,1.30
2022-08-21T15:26:25.452Z,1.08
2022-08-21T15:31:28.760Z,0.80
2022-08-21T15:36:31.649Z,0.80
2022-08-21T15:41:35.920Z,1.10
2022-08-21T15:46:39.633Z,0.68
2022-08-21T15:51:43.684Z,1.10
2022-08-21T15:56:52.531Z,0.80
2022-08-21T16:01:55.400Z,1.05
2022-08-21T16:07:04.363Z,0.82
2022-08-21T16:12:15.880Z,0.60
2022-08-21T16:17:18.801Z,0.57
2022-08-21T16:22:21.585Z,0.63
2022-08-21T16:27:27.269Z,0.77
2022-08-21T16:32:30.746Z,0.57
2022-08-21T16:37:33.581Z,0.70
2022-08-21T16:42:38.971Z,0.73
2022-08-21T16:47:43.034Z,1.13
2022-08-21T16:52:45.889Z,0.90
2022-08-21T16:57:50.609Z,0.80
2022-08-21T17:02:56.332Z,1.00
2022-08-21T17:07:59.204Z,1.20
2022-08-21T17:13:09.423Z,1.17
2022-08-21T17:18:15.686Z,1.10
2022-08-21T17:23:20.116Z,1.38
2022-08-21T17:28:27.507Z,1.00
2022-08-21T17:33:37.652Z,1.17
2022-08-21T17:38:40.675Z,1.00
2022-08-21T17:43:45.211Z,1.10
2022-08-21T17:48:48.009Z,1.30
2022-08-21T17:53:50.936Z,1.40
2022-08-21T17:58:55.237Z,1.20
2022-08-21T18:03:58.045Z,1.20
2022-08-21T18:09:00.851Z,1.27
2022-08-21T18:14:07.759Z,1.30
2022-08-21T18:19:16.008Z,1.20
2022-08-21T18:24:18.924Z,1.40
2022-08-21T18:29:23.454Z,1.20
2022-08-21T18:34:29.136Z,1.20
2022-08-21T18:39:37.271Z,1.23
2022-08-21T18:44:47.252Z,1.27
2022-08-21T18:49:51.830Z,1.40
2022-08-21T18:54:54.714Z,1.30
2022-08-21T18:59:58.952Z,1.45
2022-08-21T19:05:01.757Z,1.40
2022-08-21T19:10:27.860Z,1.30
2022-08-21T19:15:33.158Z,1.55
2022-08-21T19:20:36.922Z,1.55
2022-08-21T19:25:43.213Z,1.48
2022-08-21T19:30:56.046Z,1.70
2022-08-21T19:36:00.204Z,1.83
2022-08-21T19:41:03.831Z,1.60
2022-08-21T19:46:08.203Z,1.45
2022-08-21T19:51:11.168Z,1.50
2022-08-21T19:56:20.232Z,1.58
2022-08-21T20:01:28.128Z,1.65
2022-08-21T20:06:31.260Z,1.42
2022-08-21T20:11:37.721Z,1.55
2022-08-21T20:16:42.438Z,1.42
2022-08-21T20:21:46.065Z,1.40
2022-08-21T20:26:49.977Z,1.48
2022-08-21T20:31:54.502Z,1.40
2022-08-21T20:36:58.641Z,1.65
2022-08-21T20:42:04.200Z,1.80
2022-08-21T20:47:11.575Z,1.60
2022-08-21T20:52:17.037Z,1.30
2022-08-21T20:57:29.361Z,1.33
2022-08-21T21:02:50.668Z,1.83
2022-08-21T21:08:00.456Z,1.58
2022-08-21T21:13:09.760Z,1.77
2022-08-21T21:18:20.157Z,1.77
2022-08-21T21:23:28.518Z,1.60
2022-08-21T21:28:43.560Z,1.58
2022-08-21T21:33:48.701Z,1.83
2022-08-21T21:38:56.309Z,1.92
2022-08-21T21:44:12.633Z,1.90
2022-08-21T21:49:50.111Z,2.20
2022-08-21T21:55:13.079Z,1.90
2022-08-21T22:00:26.507Z,2.65
2022-08-21T22:05:56.239Z,1.98
2022-08-21T22:11:08.777Z,2.30
2022-08-21T22:16:12.572Z,2.20
2022-08-21T22:21:23.971Z,2.33
2022-08-21T22:26:34.357Z,2.00
2022-08-21T22:31:38.439Z,2.50
2022-08-21T22:36:45.502Z,2.50
2022-08-21T22:41:54.801Z,2.70
2022-08-21T22:47:00.837Z,1.90
2022-08-21T22:52:11.865Z,2.42
2022-08-21T22:57:24.218Z,2.10
2022-08-21T23:02:36.025Z,2.60
2022-08-21T23:07:44.479Z,3.75
2022-08-21T23:12:55.652Z,3.45
2022-08-21T23:18:04.564Z,2.95
2022-08-21T23:23:17.769Z,2.60
2022-08-21T23:28:34.732Z,2.30
2022-08-21T23:34:00.941Z,2.53
2022-08-21T23:39:25.770Z,3.30
2022-08-21T23:44:46.238Z,2.92
2022-08-21T23:49:53.800Z,2.85
2022-08-21T23:55:18.987Z,3.22
